sensor_id;sensor_type;location;lat;lon;timestamp;temperature;humidity
7399;DHT22;3740;50.700;7.184;2023-04-24T00:00:16;13.00;99.90
7399;DHT22;3740;50.700;7.184;2023-04-24T00:02:43;13.00;99.90
7399;DHT22;3740;50.700;7.184;2023-04-24T00:05:14;13.00;99.90
7399;DHT22;3740;50.700;7.184;2023-04-24T00:07:40;13.00;99.90
7399;DHT22;3740;50.700;7.184;2023-04-24T00:10:06;13.00;99.90
7399;DHT22;3740;50.700;7.184;2023-04-24T00:12:32;13.00;99.90
7399;DHT22;3740;50.700;7.184;2023-04-24T00:14:58;13.00;99.90
7399;DHT22;3740;50.700;7.184;2023-04-24T00:17:23;13.00;99.90
7399;DHT22;3740;50.700;7.184;2023-04-24T00:19:49;13.00;99.90
7399;DHT22;3740;50.700;7.184;2023-04-24T00:22:16;13.00;99.90
7399;DHT22;3740;50.700;7.184;2023-04-24T00:24:42;13.10;99.90
7399;DHT22;3740;50.700;7.184;2023-04-24T00:27:08;13.10;99.90
7399;DHT22;3740;50.700;7.184;2023-04-24T00:29:34;13.10;99.90
7399;DHT22;3740;50.700;7.184;2023-04-24T00:31:59;13.10;99.90
7399;DHT22;3740;50.700;7.184;2023-04-24T00:34:25;13.10;99.90
7399;DHT22;3740;50.700;7.184;2023-04-24T00:36:51;13.10;99.90
7399;DHT22;3740;50.700;7.184;2023-04-24T00:39:18;13.10;99.90
7399;DHT22;3740;50.700;7.184;2023-04-24T00:41:45;13.00;99.90
7399;DHT22;3740;50.700;7.184;2023-04-24T00:44:10;13.00;99.90
7399;DHT22;3740;50.700;7.184;2023-04-24T00:46:36;13.00;99.90
7399;DHT22;3740;50.700;7.184;2023-04-24T00:49:02;13.10;99.90
7399;DHT22;3740;50.700;7.184;2023-04-24T00:51:29;13.10;99.90
7399;DHT22;3740;50.700;7.184;2023-04-24T00:53:56;13.10;99.90
7399;DHT22;3740;50.700;7.184;2023-04-24T00:56:21;13.10;99.90
7399;DHT22;3740;50.700;7.184;2023-04-24T00:58:47;13.10;99.90
7399;DHT22;3740;50.700;7.184;2023-04-24T01:01:13;13.10;99.90
7399;DHT22;3740;50.700;7.184;2023-04-24T01:03:39;13.10;99.90
7399;DHT22;3740;50.700;7.184;2023-04-24T01:06:05;13.10;99.90
7399;DHT22;3740;50.700;7.184;2023-04-24T01:08:32;13.00;99.90
7399;DHT22;3740;50.700;7.184;2023-04-24T01:11:03;13.00;99.90
7399;DHT22;3740;50.700;7.184;2023-04-24T01:13:29;13.00;99.90
7399;DHT22;3740;50.700;7.184;2023-04-24T01:15:54;13.00;99.90
7399;DHT22;3740;50.700;7.184;2023-04-24T01:18:20;13.00;99.90
7399;DHT22;3740;50.700;7.184;2023-04-24T01:20:48;13.00;99.90
7399;DHT22;3740;50.700;7.184;2023-04-24T01:23:16;13.00;99.90
7399;DHT22;3740;50.700;7.184;2023-04-24T01:25:42;13.00;99.90
7399;DHT22;3740;50.700;7.184;2023-04-24T01:28:08;12.90;99.90
7399;DHT22;3740;50.700;7.184;2023-04-24T01:30:34;12.90;99.90
7399;DHT22;3740;50.700;7.184;2023-04-24T01:32:59;12.90;99.90
7399;DHT22;3740;50.700;7.184;2023-04-24T01:35:25;12.90;99.90
7399;DHT22;3740;50.700;7.184;2023-04-24T01:37:51;12.60;99.90
7399;DHT22;3740;50.700;7.184;2023-04-24T01:40:17;12.60;99.90
7399;DHT22;3740;50.700;7.184;2023-04-24T01:42:42;12.40;99.90
7399;DHT22;3740;50.700;7.184;2023-04-24T01:45:11;12.40;99.90
7399;DHT22;3740;50.700;7.184;2023-04-24T01:47:37;12.40;99.90
7399;DHT22;3740;50.700;7.184;2023-04-24T01:50:03;12.40;99.90
7399;DHT22;3740;50.700;7.184;2023-04-24T01:52:29;12.30;99.90
7399;DHT22;3740;50.700;7.184;2023-04-24T01:54:59;12.30;99.90
7399;DHT22;3740;50.700;7.184;2023-04-24T01:57:24;12.10;99.90
7399;DHT22;3740;50.700;7.184;2023-04-24T01:59:51;12.20;99.90
7399;DHT22;3740;50.700;7.184;2023-04-24T02:02:16;12.30;99.90
7399;DHT22;3740;50.700;7.184;2023-04-24T02:04:42;12.20;99.90
7399;DHT22;3740;50.700;7.184;2023-04-24T02:07:07;12.20;99.90
7399;DHT22;3740;50.700;7.184;2023-04-24T02:09:33;12.20;99.90
7399;DHT22;3740;50.700;7.184;2023-04-24T02:11:59;12.10;99.90
7399;DHT22;3740;50.700;7.184;2023-04-24T02:14:24;12.10;99.90
7399;DHT22;3740;50.700;7.184;2023-04-24T02:16:50;12.00;99.90
7399;DHT22;3740;50.700;7.184;2023-04-24T02:19:15;12.00;99.90
7399;DHT22;3740;50.700;7.184;2023-04-24T02:21:41;11.90;99.90
7399;DHT22;3740;50.700;7.184;2023-04-24T02:24:07;11.90;99.90
7399;DHT22;3740;50.700;7.184;2023-04-24T02:26:32;11.80;99.90
7399;DHT22;3740;50.700;7.184;2023-04-24T02:28:58;11.90;99.90
7399;DHT22;3740;50.700;7.184;2023-04-24T02:31:23;11.90;99.90
7399;DHT22;3740;50.700;7.184;2023-04-24T02:33:49;11.90;99.90
7399;DHT22;3740;50.700;7.184;2023-04-24T02:36:15;11.80;99.90
7399;DHT22;3740;50.700;7.184;2023-04-24T02:38:41;11.80;99.90
7399;DHT22;3740;50.700;7.184;2023-04-24T02:41:06;11.60;99.90
7399;DHT22;3740;50.700;7.184;2023-04-24T02:43:32;11.60;99.90
7399;DHT22;3740;50.700;7.184;2023-04-24T02:45:58;11.60;99.90
7399;DHT22;3740;50.700;7.184;2023-04-24T02:48:24;11.60;99.90
7399;DHT22;3740;50.700;7.184;2023-04-24T02:50:50;11.60;99.90
7399;DHT22;3740;50.700;7.184;2023-04-24T02:53:16;11.60;99.90
7399;DHT22;3740;50.700;7.184;2023-04-24T02:55:41;11.50;99.90
7399;DHT22;3740;50.700;7.184;2023-04-24T02:58:07;11.40;99.90
7399;DHT22;3740;50.700;7.184;2023-04-24T03:00:33;11.30;99.90
7399;DHT22;3740;50.700;7.184;2023-04-24T03:02:58;11.20;99.90
7399;DHT22;3740;50.700;7.184;2023-04-24T03:05:24;11.20;99.90
7399;DHT22;3740;50.700;7.184;2023-04-24T03:07:50;11.10;99.90
7399;DHT22;3740;50.700;7.184;2023-04-24T03:10:18;11.10;99.90
7399;DHT22;3740;50.700;7.184;2023-04-24T03:12:43;11.00;99.90
7399;DHT22;3740;50.700;7.184;2023-04-24T03:15:09;11.00;99.90
7399;DHT22;3740;50.700;7.184;2023-04-24T03:17:35;11.00;99.90
7399;DHT22;3740;50.700;7.184;2023-04-24T03:20:01;11.00;99.90
7399;DHT22;3740;50.700;7.184;2023-04-24T03:22:26;11.00;99.90
7399;DHT22;3740;50.700;7.184;2023-04-24T03:24:52;10.90;99.90
7399;DHT22;3740;50.700;7.184;2023-04-24T03:27:17;10.90;99.90
7399;DHT22;3740;50.700;7.184;2023-04-24T03:29:43;10.90;99.90
7399;DHT22;3740;50.700;7.184;2023-04-24T03:32:08;11.00;99.90
7399;DHT22;3740;50.700;7.184;2023-04-24T03:34:34;11.00;99.90
7399;DHT22;3740;50.700;7.184;2023-04-24T03:37:00;11.00;99.90
7399;DHT22;3740;50.700;7.184;2023-04-24T03:39:25;11.00;99.90
7399;DHT22;3740;50.700;7.184;2023-04-24T03:41:51;11.00;99.90
7399;DHT22;3740;50.700;7.184;2023-04-24T03:44:16;11.00;99.90
7399;DHT22;3740;50.700;7.184;2023-04-24T03:46:42;10.90;99.90
7399;DHT22;3740;50.700;7.184;2023-04-24T03:49:07;10.90;99.90
7399;DHT22;3740;50.700;7.184;2023-04-24T03:51:33;10.90;99.90
7399;DHT22;3740;50.700;7.184;2023-04-24T03:53:59;10.80;99.90
7399;DHT22;3740;50.700;7.184;2023-04-24T03:56:24;10.80;99.90
7399;DHT22;3740;50.700;7.184;2023-04-24T03:58:50;10.80;99.90
7399;DHT22;3740;50.700;7.184;2023-04-24T04:01:15;10.80;99.90
7399;DHT22;3740;50.700;7.184;2023-04-24T04:03:41;10.70;99.90
7399;DHT22;3740;50.700;7.184;2023-04-24T04:06:07;10.70;99.90
7399;DHT22;3740;50.700;7.184;2023-04-24T04:08:32;10.70;99.90
7399;DHT22;3740;50.700;7.184;2023-04-24T04:10:58;10.70;99.90
7399;DHT22;3740;50.700;7.184;2023-04-24T04:13:23;10.70;99.90
7399;DHT22;3740;50.700;7.184;2023-04-24T04:15:49;10.70;99.90
7399;DHT22;3740;50.700;7.184;2023-04-24T04:18:15;10.80;99.90
7399;DHT22;3740;50.700;7.184;2023-04-24T04:20:41;10.70;99.90
7399;DHT22;3740;50.700;7.184;2023-04-24T04:23:06;10.60;99.90
7399;DHT22;3740;50.700;7.184;2023-04-24T04:25:32;10.60;99.90
7399;DHT22;3740;50.700;7.184;2023-04-24T04:27:58;10.60;99.90
7399;DHT22;3740;50.700;7.184;2023-04-24T04:30:24;10.70;99.90
7399;DHT22;3740;50.700;7.184;2023-04-24T04:32:51;10.70;99.90
7399;DHT22;3740;50.700;7.184;2023-04-24T04:35:16;10.70;99.90
7399;DHT22;3740;50.700;7.184;2023-04-24T04:37:42;10.60;99.90
7399;DHT22;3740;50.700;7.184;2023-04-24T04:40:08;10.40;99.90
7399;DHT22;3740;50.700;7.184;2023-04-24T04:42:37;10.40;99.90
7399;DHT22;3740;50.700;7.184;2023-04-24T04:45:08;10.40;99.90
7399;DHT22;3740;50.700;7.184;2023-04-24T04:47:34;10.40;99.90
7399;DHT22;3740;50.700;7.184;2023-04-24T04:50:00;10.40;99.90
7399;DHT22;3740;50.700;7.184;2023-04-24T04:52:26;10.40;99.90
7399;DHT22;3740;50.700;7.184;2023-04-24T04:54:52;10.50;99.90
7399;DHT22;3740;50.700;7.184;2023-04-24T04:57:17;10.50;99.90
7399;DHT22;3740;50.700;7.184;2023-04-24T04:59:43;10.50;99.90
7399;DHT22;3740;50.700;7.184;2023-04-24T05:02:09;10.60;99.90
7399;DHT22;3740;50.700;7.184;2023-04-24T05:04:34;10.60;99.90
7399;DHT22;3740;50.700;7.184;2023-04-24T05:07:00;10.60;99.90
7399;DHT22;3740;50.700;7.184;2023-04-24T05:09:25;10.70;99.90
7399;DHT22;3740;50.700;7.184;2023-04-24T05:11:53;10.70;99.90
7399;DHT22;3740;50.700;7.184;2023-04-24T05:14:18;10.80;99.90
7399;DHT22;3740;50.700;7.184;2023-04-24T05:16:44;10.80;99.90
7399;DHT22;3740;50.700;7.184;2023-04-24T05:19:10;10.80;99.90
7399;DHT22;3740;50.700;7.184;2023-04-24T05:21:37;10.80;99.90
7399;DHT22;3740;50.700;7.184;2023-04-24T05:24:03;10.80;99.90
7399;DHT22;3740;50.700;7.184;2023-04-24T05:26:29;10.70;99.90
7399;DHT22;3740;50.700;7.184;2023-04-24T05:28:55;10.60;99.90
7399;DHT22;3740;50.700;7.184;2023-04-24T05:31:20;10.70;99.90
7399;DHT22;3740;50.700;7.184;2023-04-24T05:33:46;10.70;99.90
7399;DHT22;3740;50.700;7.184;2023-04-24T05:36:12;10.70;99.90
7399;DHT22;3740;50.700;7.184;2023-04-24T05:38:38;10.70;99.90
7399;DHT22;3740;50.700;7.184;2023-04-24T05:41:03;10.80;99.90
7399;DHT22;3740;50.700;7.184;2023-04-24T05:43:29;10.80;99.90
7399;DHT22;3740;50.700;7.184;2023-04-24T05:45:54;10.80;99.90
7399;DHT22;3740;50.700;7.184;2023-04-24T05:48:20;10.90;99.90
7399;DHT22;3740;50.700;7.184;2023-04-24T05:50:47;11.00;99.90
7399;DHT22;3740;50.700;7.184;2023-04-24T05:53:13;11.00;99.90
7399;DHT22;3740;50.700;7.184;2023-04-24T05:55:39;11.00;99.90
7399;DHT22;3740;50.700;7.184;2023-04-24T05:58:04;10.90;99.90
7399;DHT22;3740;50.700;7.184;2023-04-24T06:00:30;11.00;99.90
7399;DHT22;3740;50.700;7.184;2023-04-24T06:02:56;10.90;99.90
7399;DHT22;3740;50.700;7.184;2023-04-24T06:05:22;10.90;99.90
7399;DHT22;3740;50.700;7.184;2023-04-24T06:07:48;10.80;99.90
7399;DHT22;3740;50.700;7.184;2023-04-24T06:10:13;10.80;99.90
7399;DHT22;3740;50.700;7.184;2023-04-24T06:12:39;10.90;99.90
7399;DHT22;3740;50.700;7.184;2023-04-24T06:15:05;10.80;99.90
7399;DHT22;3740;50.700;7.184;2023-04-24T06:17:31;10.90;99.90
7399;DHT22;3740;50.700;7.184;2023-04-24T06:19:57;10.90;99.90
7399;DHT22;3740;50.700;7.184;2023-04-24T06:22:23;11.00;99.90
7399;DHT22;3740;50.700;7.184;2023-04-24T06:24:48;10.90;99.90
7399;DHT22;3740;50.700;7.184;2023-04-24T06:27:14;10.90;99.90
7399;DHT22;3740;50.700;7.184;2023-04-24T06:29:40;10.90;99.90
7399;DHT22;3740;50.700;7.184;2023-04-24T06:32:05;10.90;99.90
7399;DHT22;3740;50.700;7.184;2023-04-24T06:34:31;10.90;99.90
7399;DHT22;3740;50.700;7.184;2023-04-24T06:36:58;10.90;99.90
7399;DHT22;3740;50.700;7.184;2023-04-24T06:39:23;10.90;99.90
7399;DHT22;3740;50.700;7.184;2023-04-24T06:41:49;10.90;99.90
7399;DHT22;3740;50.700;7.184;2023-04-24T06:44:14;10.80;99.90
7399;DHT22;3740;50.700;7.184;2023-04-24T06:46:41;10.80;99.90
7399;DHT22;3740;50.700;7.184;2023-04-24T06:49:06;10.80;99.90
7399;DHT22;3740;50.700;7.184;2023-04-24T06:51:32;10.80;99.90
7399;DHT22;3740;50.700;7.184;2023-04-24T06:53:58;10.70;99.90
7399;DHT22;3740;50.700;7.184;2023-04-24T06:56:25;10.80;99.90
7399;DHT22;3740;50.700;7.184;2023-04-24T06:58:51;10.80;99.90
7399;DHT22;3740;50.700;7.184;2023-04-24T07:01:17;10.70;99.90
7399;DHT22;3740;50.700;7.184;2023-04-24T07:03:42;10.80;99.90
7399;DHT22;3740;50.700;7.184;2023-04-24T07:06:09;10.70;99.90
7399;DHT22;3740;50.700;7.184;2023-04-24T07:08:36;10.60;99.90
7399;DHT22;3740;50.700;7.184;2023-04-24T07:11:02;10.50;99.90
7399;DHT22;3740;50.700;7.184;2023-04-24T07:13:27;10.30;99.90
7399;DHT22;3740;50.700;7.184;2023-04-24T07:15:53;10.10;99.90
7399;DHT22;3740;50.700;7.184;2023-04-24T07:18:20;10.00;99.90
7399;DHT22;3740;50.700;7.184;2023-04-24T07:20:46;10.00;99.90
7399;DHT22;3740;50.700;7.184;2023-04-24T07:23:12;9.90;99.90
7399;DHT22;3740;50.700;7.184;2023-04-24T07:25:37;9.90;99.90
7399;DHT22;3740;50.700;7.184;2023-04-24T07:28:04;9.90;99.90
7399;DHT22;3740;50.700;7.184;2023-04-24T07:30:30;9.90;99.90
7399;DHT22;3740;50.700;7.184;2023-04-24T07:32:56;9.90;99.90
7399;DHT22;3740;50.700;7.184;2023-04-24T07:35:21;10.00;99.90
7399;DHT22;3740;50.700;7.184;2023-04-24T07:37:47;10.00;99.90
7399;DHT22;3740;50.700;7.184;2023-04-24T07:40:13;10.00;99.90
7399;DHT22;3740;50.700;7.184;2023-04-24T07:42:39;10.10;99.90
7399;DHT22;3740;50.700;7.184;2023-04-24T07:45:05;10.20;99.90
7399;DHT22;3740;50.700;7.184;2023-04-24T07:47:32;10.20;99.90
7399;DHT22;3740;50.700;7.184;2023-04-24T07:49:57;10.30;99.90
7399;DHT22;3740;50.700;7.184;2023-04-24T07:52:24;10.30;99.90
7399;DHT22;3740;50.700;7.184;2023-04-24T07:54:49;10.30;99.90
7399;DHT22;3740;50.700;7.184;2023-04-24T07:57:15;10.30;99.90
7399;DHT22;3740;50.700;7.184;2023-04-24T07:59:41;10.40;99.90
7399;DHT22;3740;50.700;7.184;2023-04-24T08:02:07;10.30;99.90
7399;DHT22;3740;50.700;7.184;2023-04-24T08:04:33;10.30;99.90
7399;DHT22;3740;50.700;7.184;2023-04-24T08:06:58;10.30;99.90
7399;DHT22;3740;50.700;7.184;2023-04-24T08:09:24;10.30;99.90
7399;DHT22;3740;50.700;7.184;2023-04-24T08:11:49;10.10;99.90
7399;DHT22;3740;50.700;7.184;2023-04-24T08:14:15;10.00;99.90
7399;DHT22;3740;50.700;7.184;2023-04-24T08:16:41;9.80;99.90
7399;DHT22;3740;50.700;7.184;2023-04-24T08:19:07;9.60;99.90
7399;DHT22;3740;50.700;7.184;2023-04-24T08:21:32;9.60;99.90
7399;DHT22;3740;50.700;7.184;2023-04-24T08:23:58;9.50;99.90
7399;DHT22;3740;50.700;7.184;2023-04-24T08:26:23;9.40;99.90
7399;DHT22;3740;50.700;7.184;2023-04-24T08:28:49;9.30;99.90
7399;DHT22;3740;50.700;7.184;2023-04-24T08:31:14;9.20;99.90
7399;DHT22;3740;50.700;7.184;2023-04-24T08:33:40;9.10;99.90
7399;DHT22;3740;50.700;7.184;2023-04-24T08:36:06;9.30;99.90
7399;DHT22;3740;50.700;7.184;2023-04-24T08:38:32;9.30;99.90
7399;DHT22;3740;50.700;7.184;2023-04-24T08:41:00;9.30;99.90
7399;DHT22;3740;50.700;7.184;2023-04-24T08:43:26;9.40;99.90
7399;DHT22;3740;50.700;7.184;2023-04-24T08:45:54;9.30;99.90
7399;DHT22;3740;50.700;7.184;2023-04-24T08:48:22;9.20;99.90
7399;DHT22;3740;50.700;7.184;2023-04-24T08:50:50;9.10;99.90
7399;DHT22;3740;50.700;7.184;2023-04-24T08:53:16;8.80;99.90
7399;DHT22;3740;50.700;7.184;2023-04-24T08:55:43;8.70;99.90
7399;DHT22;3740;50.700;7.184;2023-04-24T08:58:12;8.50;99.90
7399;DHT22;3740;50.700;7.184;2023-04-24T09:00:39;8.40;99.90
7399;DHT22;3740;50.700;7.184;2023-04-24T09:03:05;8.10;99.90
7399;DHT22;3740;50.700;7.184;2023-04-24T09:05:32;8.10;99.90
7399;DHT22;3740;50.700;7.184;2023-04-24T09:07:59;8.20;99.90
7399;DHT22;3740;50.700;7.184;2023-04-24T09:10:27;8.20;99.90
7399;DHT22;3740;50.700;7.184;2023-04-24T09:12:56;8.20;99.90
7399;DHT22;3740;50.700;7.184;2023-04-24T09:15:24;8.20;99.90
7399;DHT22;3740;50.700;7.184;2023-04-24T09:17:50;8.20;99.90
7399;DHT22;3740;50.700;7.184;2023-04-24T09:20:15;8.10;99.90
7399;DHT22;3740;50.700;7.184;2023-04-24T09:22:42;8.10;99.90
7399;DHT22;3740;50.700;7.184;2023-04-24T09:25:09;8.30;99.90
7399;DHT22;3740;50.700;7.184;2023-04-24T09:27:42;8.50;99.90
7399;DHT22;3740;50.700;7.184;2023-04-24T09:30:09;8.70;99.90
7399;DHT22;3740;50.700;7.184;2023-04-24T09:32:34;8.90;99.90
7399;DHT22;3740;50.700;7.184;2023-04-24T09:35:14;8.90;99.90
7399;DHT22;3740;50.700;7.184;2023-04-24T09:37:47;9.10;99.90
7399;DHT22;3740;50.700;7.184;2023-04-24T09:40:21;9.10;99.90
7399;DHT22;3740;50.700;7.184;2023-04-24T09:42:55;9.10;99.90
7399;DHT22;3740;50.700;7.184;2023-04-24T09:45:22;9.10;99.90
7399;DHT22;3740;50.700;7.184;2023-04-24T09:47:52;9.20;99.90
7399;DHT22;3740;50.700;7.184;2023-04-24T09:50:21;9.30;99.90
7399;DHT22;3740;50.700;7.184;2023-04-24T09:52:56;9.50;99.90
7399;DHT22;3740;50.700;7.184;2023-04-24T09:55:23;9.60;99.90
7399;DHT22;3740;50.700;7.184;2023-04-24T09:57:53;9.50;99.90
7399;DHT22;3740;50.700;7.184;2023-04-24T10:00:26;9.30;99.90
7399;DHT22;3740;50.700;7.184;2023-04-24T10:03:10;9.20;99.90
7399;DHT22;3740;50.700;7.184;2023-04-24T10:05:37;9.00;99.90
7399;DHT22;3740;50.700;7.184;2023-04-24T10:08:13;8.90;99.90
7399;DHT22;3740;50.700;7.184;2023-04-24T10:10:43;8.90;99.90
7399;DHT22;3740;50.700;7.184;2023-04-24T10:13:10;8.90;99.90
7399;DHT22;3740;50.700;7.184;2023-04-24T10:15:40;8.90;99.90
7399;DHT22;3740;50.700;7.184;2023-04-24T10:18:07;8.90;99.90
7399;DHT22;3740;50.700;7.184;2023-04-24T10:20:35;9.00;99.90
7399;DHT22;3740;50.700;7.184;2023-04-24T10:23:01;9.10;99.90
7399;DHT22;3740;50.700;7.184;2023-04-24T10:25:32;9.20;99.90
7399;DHT22;3740;50.700;7.184;2023-04-24T10:27:59;9.30;99.90
7399;DHT22;3740;50.700;7.184;2023-04-24T10:30:27;9.20;99.90
7399;DHT22;3740;50.700;7.184;2023-04-24T10:32:53;9.10;99.90
7399;DHT22;3740;50.700;7.184;2023-04-24T10:35:19;8.90;99.90
7399;DHT22;3740;50.700;7.184;2023-04-24T10:37:58;9.00;99.90
7399;DHT22;3740;50.700;7.184;2023-04-24T10:40:31;9.20;99.90
7399;DHT22;3740;50.700;7.184;2023-04-24T10:42:57;9.20;99.90
7399;DHT22;3740;50.700;7.184;2023-04-24T10:45:23;9.30;99.90
7399;DHT22;3740;50.700;7.184;2023-04-24T10:47:53;9.10;99.90
7399;DHT22;3740;50.700;7.184;2023-04-24T10:50:21;9.00;99.90
7399;DHT22;3740;50.700;7.184;2023-04-24T10:52:48;9.10;99.90
7399;DHT22;3740;50.700;7.184;2023-04-24T10:55:16;9.20;99.90
7399;DHT22;3740;50.700;7.184;2023-04-24T10:58:01;9.30;99.90
7399;DHT22;3740;50.700;7.184;2023-04-24T11:00:28;9.30;99.90
7399;DHT22;3740;50.700;7.184;2023-04-24T11:02:53;9.20;99.90
7399;DHT22;3740;50.700;7.184;2023-04-24T11:05:20;9.10;99.90
7399;DHT22;3740;50.700;7.184;2023-04-24T11:08:10;9.30;99.90
7399;DHT22;3740;50.700;7.184;2023-04-24T11:10:45;9.60;99.90
7399;DHT22;3740;50.700;7.184;2023-04-24T11:13:15;9.70;99.90
7399;DHT22;3740;50.700;7.184;2023-04-24T11:15:43;9.80;99.90
7399;DHT22;3740;50.700;7.184;2023-04-24T11:18:16;10.20;99.90
7399;DHT22;3740;50.700;7.184;2023-04-24T11:20:43;11.10;99.90
7399;DHT22;3740;50.700;7.184;2023-04-24T11:23:09;12.10;99.90
7399;DHT22;3740;50.700;7.184;2023-04-24T11:25:37;12.40;99.90
7399;DHT22;3740;50.700;7.184;2023-04-24T11:28:04;12.70;99.90
7399;DHT22;3740;50.700;7.184;2023-04-24T11:30:31;13.10;99.90
7399;DHT22;3740;50.700;7.184;2023-04-24T11:33:02;13.10;99.90
7399;DHT22;3740;50.700;7.184;2023-04-24T11:35:28;12.80;99.90
7399;DHT22;3740;50.700;7.184;2023-04-24T11:37:56;12.10;99.90
7399;DHT22;3740;50.700;7.184;2023-04-24T11:40:22;11.70;99.90
7399;DHT22;3740;50.700;7.184;2023-04-24T11:42:52;11.50;99.90
7399;DHT22;3740;50.700;7.184;2023-04-24T11:45:25;11.40;99.90
7399;DHT22;3740;50.700;7.184;2023-04-24T11:47:51;11.40;99.90
7399;DHT22;3740;50.700;7.184;2023-04-24T11:50:18;11.20;99.90
7399;DHT22;3740;50.700;7.184;2023-04-24T11:52:46;11.20;99.90
7399;DHT22;3740;50.700;7.184;2023-04-24T11:57:42;11.40;99.90
7399;DHT22;3740;50.700;7.184;2023-04-24T12:02:40;11.30;99.90
7399;DHT22;3740;50.700;7.184;2023-04-24T12:05:06;10.90;99.90
7399;DHT22;3740;50.700;7.184;2023-04-24T12:07:40;10.80;99.90
7399;DHT22;3740;50.700;7.184;2023-04-24T12:10:08;10.70;99.90
7399;DHT22;3740;50.700;7.184;2023-04-24T12:12:34;10.70;99.90
7399;DHT22;3740;50.700;7.184;2023-04-24T12:15:05;10.70;99.90
7399;DHT22;3740;50.700;7.184;2023-04-24T12:17:33;10.80;99.90
7399;DHT22;3740;50.700;7.184;2023-04-24T12:20:04;11.10;99.90
7399;DHT22;3740;50.700;7.184;2023-04-24T12:22:50;11.10;99.90
7399;DHT22;3740;50.700;7.184;2023-04-24T12:25:18;11.40;99.90
7399;DHT22;3740;50.700;7.184;2023-04-24T12:27:44;11.50;99.90
7399;DHT22;3740;50.700;7.184;2023-04-24T12:30:13;11.50;99.90
7399;DHT22;3740;50.700;7.184;2023-04-24T12:32:47;11.40;99.90
7399;DHT22;3740;50.700;7.184;2023-04-24T12:35:14;11.30;99.90
7399;DHT22;3740;50.700;7.184;2023-04-24T12:37:44;11.50;99.90
7399;DHT22;3740;50.700;7.184;2023-04-24T12:40:11;11.60;99.90
7399;DHT22;3740;50.700;7.184;2023-04-24T12:42:45;11.80;99.90
7399;DHT22;3740;50.700;7.184;2023-04-24T12:45:12;12.10;99.90
7399;DHT22;3740;50.700;7.184;2023-04-24T12:47:39;12.40;99.90
7399;DHT22;3740;50.700;7.184;2023-04-24T12:50:07;12.70;99.90
7399;DHT22;3740;50.700;7.184;2023-04-24T12:52:32;12.80;99.90
7399;DHT22;3740;50.700;7.184;2023-04-24T12:54:59;12.80;99.90
7399;DHT22;3740;50.700;7.184;2023-04-24T12:57:26;13.00;99.90
7399;DHT22;3740;50.700;7.184;2023-04-24T12:59:56;13.00;99.90
7399;DHT22;3740;50.700;7.184;2023-04-24T13:02:23;13.60;99.90
7399;DHT22;3740;50.700;7.184;2023-04-24T13:04:50;13.90;99.90
7399;DHT22;3740;50.700;7.184;2023-04-24T13:07:16;14.00;99.90
7399;DHT22;3740;50.700;7.184;2023-04-24T13:09:42;13.70;99.90
7399;DHT22;3740;50.700;7.184;2023-04-24T13:12:09;13.40;99.90
7399;DHT22;3740;50.700;7.184;2023-04-24T13:14:35;13.30;99.90
7399;DHT22;3740;50.700;7.184;2023-04-24T13:17:01;12.80;99.90
7399;DHT22;3740;50.700;7.184;2023-04-24T13:19:27;12.60;99.90
7399;DHT22;3740;50.700;7.184;2023-04-24T13:21:56;12.40;99.90
7399;DHT22;3740;50.700;7.184;2023-04-24T13:24:23;12.30;99.90
7399;DHT22;3740;50.700;7.184;2023-04-24T13:26:52;12.00;99.90
7399;DHT22;3740;50.700;7.184;2023-04-24T13:29:18;11.90;99.90
7399;DHT22;3740;50.700;7.184;2023-04-24T13:31:43;11.90;99.90
7399;DHT22;3740;50.700;7.184;2023-04-24T13:34:09;12.10;99.90
7399;DHT22;3740;50.700;7.184;2023-04-24T13:36:35;12.50;99.90
7399;DHT22;3740;50.700;7.184;2023-04-24T13:39:01;12.80;99.90
7399;DHT22;3740;50.700;7.184;2023-04-24T13:41:27;13.20;99.90
7399;DHT22;3740;50.700;7.184;2023-04-24T13:43:53;13.60;99.90
7399;DHT22;3740;50.700;7.184;2023-04-24T13:46:19;13.60;99.90
7399;DHT22;3740;50.700;7.184;2023-04-24T13:48:44;13.50;99.90
7399;DHT22;3740;50.700;7.184;2023-04-24T13:51:10;13.90;99.90
7399;DHT22;3740;50.700;7.184;2023-04-24T13:53:36;13.90;99.90
7399;DHT22;3740;50.700;7.184;2023-04-24T13:56:04;14.00;99.90
7399;DHT22;3740;50.700;7.184;2023-04-24T13:58:30;14.30;99.90
7399;DHT22;3740;50.700;7.184;2023-04-24T14:00:55;14.70;99.90
7399;DHT22;3740;50.700;7.184;2023-04-24T14:03:21;14.90;99.90
7399;DHT22;3740;50.700;7.184;2023-04-24T14:05:46;15.10;99.90
7399;DHT22;3740;50.700;7.184;2023-04-24T14:08:12;14.90;99.90
7399;DHT22;3740;50.700;7.184;2023-04-24T14:10:38;14.70;99.90
7399;DHT22;3740;50.700;7.184;2023-04-24T14:13:03;14.50;99.90
7399;DHT22;3740;50.700;7.184;2023-04-24T14:15:29;14.10;99.90
7399;DHT22;3740;50.700;7.184;2023-04-24T14:17:55;13.60;99.90
7399;DHT22;3740;50.700;7.184;2023-04-24T14:20:20;13.30;99.90
7399;DHT22;3740;50.700;7.184;2023-04-24T14:22:46;13.10;99.90
7399;DHT22;3740;50.700;7.184;2023-04-24T14:25:11;13.10;99.90
7399;DHT22;3740;50.700;7.184;2023-04-24T14:27:37;12.80;99.90
7399;DHT22;3740;50.700;7.184;2023-04-24T14:30:03;12.70;99.90
7399;DHT22;3740;50.700;7.184;2023-04-24T14:32:29;12.60;99.90
7399;DHT22;3740;50.700;7.184;2023-04-24T14:34:55;12.50;99.90
7399;DHT22;3740;50.700;7.184;2023-04-24T14:37:20;12.50;99.90
7399;DHT22;3740;50.700;7.184;2023-04-24T14:39:46;12.50;99.90
7399;DHT22;3740;50.700;7.184;2023-04-24T14:42:11;12.30;99.90
7399;DHT22;3740;50.700;7.184;2023-04-24T14:44:37;12.30;99.90
7399;DHT22;3740;50.700;7.184;2023-04-24T14:47:03;12.20;99.90
7399;DHT22;3740;50.700;7.184;2023-04-24T14:49:28;12.20;99.90
7399;DHT22;3740;50.700;7.184;2023-04-24T14:51:54;12.30;99.90
7399;DHT22;3740;50.700;7.184;2023-04-24T14:54:19;12.20;99.90
7399;DHT22;3740;50.700;7.184;2023-04-24T14:56:48;12.30;99.90
7399;DHT22;3740;50.700;7.184;2023-04-24T14:59:14;12.30;99.90
7399;DHT22;3740;50.700;7.184;2023-04-24T15:01:40;12.40;99.90
7399;DHT22;3740;50.700;7.184;2023-04-24T15:04:05;12.50;99.90
7399;DHT22;3740;50.700;7.184;2023-04-24T15:06:31;12.70;99.90
7399;DHT22;3740;50.700;7.184;2023-04-24T15:08:57;12.90;99.90
7399;DHT22;3740;50.700;7.184;2023-04-24T15:11:23;13.30;99.90
7399;DHT22;3740;50.700;7.184;2023-04-24T15:13:49;13.30;99.90
7399;DHT22;3740;50.700;7.184;2023-04-24T15:16:14;13.30;99.90
7399;DHT22;3740;50.700;7.184;2023-04-24T15:18:40;13.60;99.90
7399;DHT22;3740;50.700;7.184;2023-04-24T15:21:06;13.60;99.90
7399;DHT22;3740;50.700;7.184;2023-04-24T15:23:32;13.50;99.90
7399;DHT22;3740;50.700;7.184;2023-04-24T15:25:57;13.50;99.90
7399;DHT22;3740;50.700;7.184;2023-04-24T15:28:24;13.70;99.90
7399;DHT22;3740;50.700;7.184;2023-04-24T15:30:50;13.70;99.90
7399;DHT22;3740;50.700;7.184;2023-04-24T15:33:16;13.60;99.90
7399;DHT22;3740;50.700;7.184;2023-04-24T15:35:41;13.60;99.90
7399;DHT22;3740;50.700;7.184;2023-04-24T15:38:07;13.70;99.90
7399;DHT22;3740;50.700;7.184;2023-04-24T15:40:33;13.60;99.90
7399;DHT22;3740;50.700;7.184;2023-04-24T15:42:58;13.60;99.90
7399;DHT22;3740;50.700;7.184;2023-04-24T15:45:24;13.70;99.90
7399;DHT22;3740;50.700;7.184;2023-04-24T15:47:50;13.70;99.90
7399;DHT22;3740;50.700;7.184;2023-04-24T15:50:16;13.50;99.90
7399;DHT22;3740;50.700;7.184;2023-04-24T15:52:45;13.50;99.90
7399;DHT22;3740;50.700;7.184;2023-04-24T15:55:10;13.50;99.90
7399;DHT22;3740;50.700;7.184;2023-04-24T15:57:36;13.50;99.90
7399;DHT22;3740;50.700;7.184;2023-04-24T16:00:03;13.50;99.90
7399;DHT22;3740;50.700;7.184;2023-04-24T16:02:31;13.20;99.90
7399;DHT22;3740;50.700;7.184;2023-04-24T16:04:57;13.20;99.90